sensor_id;sensor_type;location;lat;lon;timestamp;temperature;humidity
6556;DHT22;3311;48.32423000;14.29074500;2023-02-03T00:00:02;8.00;65.00
6556;DHT22;3311;48.32423000;14.29074500;2023-02-03T00:02:30;8.00;65.00
6556;DHT22;3311;48.32423000;14.29074500;2023-02-03T00:04:57;8.10;64.90
6556;DHT22;3311;48.32423000;14.29074500;2023-02-03T00:07:24;8.10;64.90
6556;DHT22;3311;48.32423000;14.29074500;2023-02-03T00:09:52;8.10;64.90
6556;DHT22;3311;48.32423000;14.29074500;2023-02-03T00:12:19;8.10;65.00
6556;DHT22;3311;48.32423000;14.29074500;2023-02-03T00:14:48;8.10;65.00
6556;DHT22;3311;48.32423000;14.29074500;2023-02-03T00:17:15;8.10;65.00
6556;DHT22;3311;48.32423000;14.29074500;2023-02-03T00:19:42;8.10;64.90
6556;DHT22;3311;48.32423000;14.29074500;2023-02-03T00:22:09;8.10;65.10
6556;DHT22;3311;48.32423000;14.29074500;2023-02-03T00:24:38;8.10;64.90
6556;DHT22;3311;48.32423000;14.29074500;2023-02-03T00:27:05;8.10;65.10
6556;DHT22;3311;48.32423000;14.29074500;2023-02-03T00:29:32;8.20;65.00
6556;DHT22;3311;48.32423000;14.29074500;2023-02-03T00:32:01;8.10;65.00
6556;DHT22;3311;48.32423000;14.29074500;2023-02-03T00:34:29;8.10;65.20
6556;DHT22;3311;48.32423000;14.29074500;2023-02-03T00:36:56;8.10;65.30
6556;DHT22;3311;48.32423000;14.29074500;2023-02-03T00:39:23;8.10;65.10
6556;DHT22;3311;48.32423000;14.29074500;2023-02-03T00:41:51;8.00;65.20
6556;DHT22;3311;48.32423000;14.29074500;2023-02-03T00:44:18;8.00;65.30
6556;DHT22;3311;48.32423000;14.29074500;2023-02-03T00:46:45;8.00;65.50
6556;DHT22;3311;48.32423000;14.29074500;2023-02-03T00:49:14;8.00;65.50
6556;DHT22;3311;48.32423000;14.29074500;2023-02-03T00:51:41;8.00;65.50
6556;DHT22;3311;48.32423000;14.29074500;2023-02-03T00:54:09;8.00;65.70
6556;DHT22;3311;48.32423000;14.29074500;2023-02-03T00:56:36;8.00;65.30
6556;DHT22;3311;48.32423000;14.29074500;2023-02-03T00:59:03;8.10;65.50
6556;DHT22;3311;48.32423000;14.29074500;2023-02-03T01:01:30;8.00;65.50
6556;DHT22;3311;48.32423000;14.29074500;2023-02-03T01:03:58;8.00;65.50
6556;DHT22;3311;48.32423000;14.29074500;2023-02-03T01:06:27;8.00;65.50
6556;DHT22;3311;48.32423000;14.29074500;2023-02-03T01:08:55;8.00;65.40
6556;DHT22;3311;48.32423000;14.29074500;2023-02-03T01:11:23;8.00;65.30
6556;DHT22;3311;48.32423000;14.29074500;2023-02-03T01:13:53;8.00;65.40
6556;DHT22;3311;48.32423000;14.29074500;2023-02-03T01:16:22;8.00;65.50
6556;DHT22;3311;48.32423000;14.29074500;2023-02-03T01:18:50;8.00;65.50
6556;DHT22;3311;48.32423000;14.29074500;2023-02-03T01:21:19;8.00;65.30
6556;DHT22;3311;48.32423000;14.29074500;2023-02-03T01:23:49;8.10;65.10
6556;DHT22;3311;48.32423000;14.29074500;2023-02-03T01:26:19;8.10;65.00
6556;DHT22;3311;48.32423000;14.29074500;2023-02-03T01:28:52;8.00;64.90
6556;DHT22;3311;48.32423000;14.29074500;2023-02-03T01:31:21;8.00;65.10
6556;DHT22;3311;48.32423000;14.29074500;2023-02-03T01:33:51;8.10;65.00
6556;DHT22;3311;48.32423000;14.29074500;2023-02-03T01:36:20;8.10;64.90
6556;DHT22;3311;48.32423000;14.29074500;2023-02-03T01:38:49;8.00;64.90
6556;DHT22;3311;48.32423000;14.29074500;2023-02-03T01:41:18;7.90;65.20
6556;DHT22;3311;48.32423000;14.29074500;2023-02-03T01:43:47;7.90;65.50
6556;DHT22;3311;48.32423000;14.29074500;2023-02-03T01:46:24;7.90;65.60
6556;DHT22;3311;48.32423000;14.29074500;2023-02-03T01:48:58;7.80;65.70
6556;DHT22;3311;48.32423000;14.29074500;2023-02-03T01:51:26;7.90;65.50
6556;DHT22;3311;48.32423000;14.29074500;2023-02-03T01:53:55;7.90;65.50
6556;DHT22;3311;48.32423000;14.29074500;2023-02-03T01:56:25;7.90;65.40
6556;DHT22;3311;48.32423000;14.29074500;2023-02-03T01:58:53;7.80;65.60
6556;DHT22;3311;48.32423000;14.29074500;2023-02-03T02:01:21;7.90;65.70
6556;DHT22;3311;48.32423000;14.29074500;2023-02-03T02:03:51;7.90;65.40
6556;DHT22;3311;48.32423000;14.29074500;2023-02-03T02:06:20;7.90;65.50
6556;DHT22;3311;48.32423000;14.29074500;2023-02-03T02:08:50;7.90;65.30
6556;DHT22;3311;48.32423000;14.29074500;2023-02-03T02:11:20;7.80;65.60
6556;DHT22;3311;48.32423000;14.29074500;2023-02-03T02:13:51;7.90;65.60
6556;DHT22;3311;48.32423000;14.29074500;2023-02-03T02:16:26;7.90;65.20
6556;DHT22;3311;48.32423000;14.29074500;2023-02-03T02:19:26;7.90;65.40
6556;DHT22;3311;48.32423000;14.29074500;2023-02-03T02:22:03;7.80;65.50
6556;DHT22;3311;48.32423000;14.29074500;2023-02-03T02:25:03;7.80;65.50
6556;DHT22;3311;48.32423000;14.29074500;2023-02-03T02:28:04;7.90;65.30
6556;DHT22;3311;48.32423000;14.29074500;2023-02-03T02:31:01;8.00;65.30
6556;DHT22;3311;48.32423000;14.29074500;2023-02-03T02:33:40;8.20;64.80
6556;DHT22;3311;48.32423000;14.29074500;2023-02-03T02:36:18;8.40;64.40
6556;DHT22;3311;48.32423000;14.29074500;2023-02-03T02:38:51;8.50;63.90
6556;DHT22;3311;48.32423000;14.29074500;2023-02-03T02:41:28;8.40;64.00
6556;DHT22;3311;48.32423000;14.29074500;2023-02-03T02:43:59;8.70;63.70
6556;DHT22;3311;48.32423000;14.29074500;2023-02-03T02:46:32;8.60;63.40
6556;DHT22;3311;48.32423000;14.29074500;2023-02-03T02:49:06;8.70;63.60
6556;DHT22;3311;48.32423000;14.29074500;2023-02-03T02:51:37;8.70;63.40
6556;DHT22;3311;48.32423000;14.29074500;2023-02-03T02:54:07;8.70;63.50
6556;DHT22;3311;48.32423000;14.29074500;2023-02-03T02:56:37;8.80;63.30
6556;DHT22;3311;48.32423000;14.29074500;2023-02-03T02:59:06;8.70;63.20
6556;DHT22;3311;48.32423000;14.29074500;2023-02-03T03:01:33;8.70;63.30
6556;DHT22;3311;48.32423000;14.29074500;2023-02-03T03:04:05;8.80;63.40
6556;DHT22;3311;48.32423000;14.29074500;2023-02-03T03:06:36;8.80;63.40
6556;DHT22;3311;48.32423000;14.29074500;2023-02-03T03:09:09;8.60;63.80
6556;DHT22;3311;48.32423000;14.29074500;2023-02-03T03:11:42;8.80;63.60
6556;DHT22;3311;48.32423000;14.29074500;2023-02-03T03:14:11;8.80;63.30
6556;DHT22;3311;48.32423000;14.29074500;2023-02-03T03:16:45;8.90;63.00
6556;DHT22;3311;48.32423000;14.29074500;2023-02-03T03:19:18;8.90;63.00
6556;DHT22;3311;48.32423000;14.29074500;2023-02-03T03:21:49;8.90;63.00
6556;DHT22;3311;48.32423000;14.29074500;2023-02-03T03:24:20;8.70;63.50
6556;DHT22;3311;48.32423000;14.29074500;2023-02-03T03:26:52;9.00;63.50
6556;DHT22;3311;48.32423000;14.29074500;2023-02-03T03:29:28;9.10;63.00
6556;DHT22;3311;48.32423000;14.29074500;2023-02-03T03:31:57;9.20;62.60
6556;DHT22;3311;48.32423000;14.29074500;2023-02-03T03:34:26;9.20;62.60
6556;DHT22;3311;48.32423000;14.29074500;2023-02-03T03:36:59;9.20;62.80
6556;DHT22;3311;48.32423000;14.29074500;2023-02-03T03:39:33;9.20;62.80
6556;DHT22;3311;48.32423000;14.29074500;2023-02-03T03:42:06;9.30;62.70
6556;DHT22;3311;48.32423000;14.29074500;2023-02-03T03:44:41;9.20;62.70
6556;DHT22;3311;48.32423000;14.29074500;2023-02-03T03:47:13;9.30;62.70
6556;DHT22;3311;48.32423000;14.29074500;2023-02-03T03:49:45;9.30;62.50
6556;DHT22;3311;48.32423000;14.29074500;2023-02-03T03:52:19;9.40;62.40
6556;DHT22;3311;48.32423000;14.29074500;2023-02-03T03:54:49;9.30;62.50
6556;DHT22;3311;48.32423000;14.29074500;2023-02-03T03:57:20;9.30;62.70
6556;DHT22;3311;48.32423000;14.29074500;2023-02-03T03:59:50;9.30;62.70
6556;DHT22;3311;48.32423000;14.29074500;2023-02-03T04:02:19;9.40;62.80
6556;DHT22;3311;48.32423000;14.29074500;2023-02-03T04:04:48;9.20;63.00
6556;DHT22;3311;48.32423000;14.29074500;2023-02-03T04:07:16;9.30;63.00
6556;DHT22;3311;48.32423000;14.29074500;2023-02-03T04:09:45;9.40;63.00
6556;DHT22;3311;48.32423000;14.29074500;2023-02-03T04:12:22;9.30;63.00
6556;DHT22;3311;48.32423000;14.29074500;2023-02-03T04:14:49;9.40;63.10
6556;DHT22;3311;48.32423000;14.29074500;2023-02-03T04:17:17;9.40;63.00
6556;DHT22;3311;48.32423000;14.29074500;2023-02-03T04:19:47;9.50;62.80
6556;DHT22;3311;48.32423000;14.29074500;2023-02-03T04:22:15;9.50;62.90
6556;DHT22;3311;48.32423000;14.29074500;2023-02-03T04:24:42;9.50;62.70
6556;DHT22;3311;48.32423000;14.29074500;2023-02-03T04:27:09;9.60;62.50
6556;DHT22;3311;48.32423000;14.29074500;2023-02-03T04:29:37;9.40;62.70
6556;DHT22;3311;48.32423000;14.29074500;2023-02-03T04:32:04;9.50;62.80
6556;DHT22;3311;48.32423000;14.29074500;2023-02-03T04:34:31;9.50;62.80
6556;DHT22;3311;48.32423000;14.29074500;2023-02-03T04:37:00;9.50;62.70
6556;DHT22;3311;48.32423000;14.29074500;2023-02-03T04:39:27;9.50;62.90
6556;DHT22;3311;48.32423000;14.29074500;2023-02-03T04:41:55;9.50;62.90
6556;DHT22;3311;48.32423000;14.29074500;2023-02-03T04:44:22;9.50;63.00
6556;DHT22;3311;48.32423000;14.29074500;2023-02-03T04:46:49;9.50;63.00
6556;DHT22;3311;48.32423000;14.29074500;2023-02-03T04:49:16;9.50;62.90
6556;DHT22;3311;48.32423000;14.29074500;2023-02-03T04:51:44;9.50;63.00
6556;DHT22;3311;48.32423000;14.29074500;2023-02-03T04:54:12;9.40;63.10
6556;DHT22;3311;48.32423000;14.29074500;2023-02-03T04:56:40;9.50;63.20
6556;DHT22;3311;48.32423000;14.29074500;2023-02-03T04:59:07;9.50;63.10
6556;DHT22;3311;48.32423000;14.29074500;2023-02-03T05:01:35;9.40;63.10
6556;DHT22;3311;48.32423000;14.29074500;2023-02-03T05:04:02;9.40;63.30
6556;DHT22;3311;48.32423000;14.29074500;2023-02-03T05:06:29;9.50;63.30
6556;DHT22;3311;48.32423000;14.29074500;2023-02-03T05:09:01;9.50;63.00
6556;DHT22;3311;48.32423000;14.29074500;2023-02-03T05:11:30;9.50;63.10
6556;DHT22;3311;48.32423000;14.29074500;2023-02-03T05:13:57;9.40;63.10
6556;DHT22;3311;48.32423000;14.29074500;2023-02-03T05:16:25;9.30;63.50
6556;DHT22;3311;48.32423000;14.29074500;2023-02-03T05:18:52;9.30;63.70
6556;DHT22;3311;48.32423000;14.29074500;2023-02-03T05:21:20;9.40;63.60
6556;DHT22;3311;48.32423000;14.29074500;2023-02-03T05:23:47;9.40;63.60
6556;DHT22;3311;48.32423000;14.29074500;2023-02-03T05:26:14;9.40;64.20
6556;DHT22;3311;48.32423000;14.29074500;2023-02-03T05:28:43;9.40;63.60
6556;DHT22;3311;48.32423000;14.29074500;2023-02-03T05:31:10;9.60;63.40
6556;DHT22;3311;48.32423000;14.29074500;2023-02-03T05:33:38;9.70;63.00
6556;DHT22;3311;48.32423000;14.29074500;2023-02-03T05:36:06;9.70;62.80
6556;DHT22;3311;48.32423000;14.29074500;2023-02-03T05:38:33;9.80;62.50
6556;DHT22;3311;48.32423000;14.29074500;2023-02-03T05:41:01;9.70;62.60
6556;DHT22;3311;48.32423000;14.29074500;2023-02-03T05:43:47;9.70;63.10
6556;DHT22;3311;48.32423000;14.29074500;2023-02-03T05:46:14;9.60;63.00
6556;DHT22;3311;48.32423000;14.29074500;2023-02-03T05:48:42;9.60;63.20
6556;DHT22;3311;48.32423000;14.29074500;2023-02-03T05:51:09;9.50;63.50
6556;DHT22;3311;48.32423000;14.29074500;2023-02-03T05:53:36;9.60;63.60
6556;DHT22;3311;48.32423000;14.29074500;2023-02-03T05:56:04;9.70;63.60
6556;DHT22;3311;48.32423000;14.29074500;2023-02-03T05:58:32;9.60;63.60
6556;DHT22;3311;48.32423000;14.29074500;2023-02-03T06:01:00;9.70;63.70
6556;DHT22;3311;48.32423000;14.29074500;2023-02-03T06:03:28;9.60;63.80
6556;DHT22;3311;48.32423000;14.29074500;2023-02-03T06:05:55;9.70;63.70
6556;DHT22;3311;48.32423000;14.29074500;2023-02-03T06:08:23;9.90;63.70
6556;DHT22;3311;48.32423000;14.29074500;2023-02-03T06:10:57;9.80;63.90
6556;DHT22;3311;48.32423000;14.29074500;2023-02-03T06:13:26;9.90;63.70
6556;DHT22;3311;48.32423000;14.29074500;2023-02-03T06:15:53;9.90;63.70
6556;DHT22;3311;48.32423000;14.29074500;2023-02-03T06:18:23;10.00;62.70
6556;DHT22;3311;48.32423000;14.29074500;2023-02-03T06:20:51;10.00;62.80
6556;DHT22;3311;48.32423000;14.29074500;2023-02-03T06:23:18;10.10;62.60
6556;DHT22;3311;48.32423000;14.29074500;2023-02-03T06:25:48;10.10;62.90
6556;DHT22;3311;48.32423000;14.29074500;2023-02-03T06:28:15;10.20;62.80
6556;DHT22;3311;48.32423000;14.29074500;2023-02-03T06:30:43;10.10;62.80
6556;DHT22;3311;48.32423000;14.29074500;2023-02-03T06:33:10;10.20;62.90
6556;DHT22;3311;48.32423000;14.29074500;2023-02-03T06:35:39;10.20;62.70
6556;DHT22;3311;48.32423000;14.29074500;2023-02-03T06:38:06;10.30;62.60
6556;DHT22;3311;48.32423000;14.29074500;2023-02-03T06:40:33;10.30;62.70
6556;DHT22;3311;48.32423000;14.29074500;2023-02-03T06:43:00;10.30;62.70
6556;DHT22;3311;48.32423000;14.29074500;2023-02-03T06:45:28;10.20;62.80
6556;DHT22;3311;48.32423000;14.29074500;2023-02-03T06:47:55;10.20;62.80
6556;DHT22;3311;48.32423000;14.29074500;2023-02-03T06:50:22;10.20;63.50
6556;DHT22;3311;48.32423000;14.29074500;2023-02-03T06:52:50;10.20;63.00
6556;DHT22;3311;48.32423000;14.29074500;2023-02-03T06:55:18;10.20;63.00
6556;DHT22;3311;48.32423000;14.29074500;2023-02-03T06:57:46;10.20;63.00
6556;DHT22;3311;48.32423000;14.29074500;2023-02-03T07:00:15;10.30;63.00
6556;DHT22;3311;48.32423000;14.29074500;2023-02-03T07:02:43;10.40;62.90
6556;DHT22;3311;48.32423000;14.29074500;2023-02-03T07:05:10;10.40;62.90
6556;DHT22;3311;48.32423000;14.29074500;2023-02-03T07:07:38;10.50;63.00
6556;DHT22;3311;48.32423000;14.29074500;2023-02-03T07:10:08;10.50;62.90
6556;DHT22;3311;48.32423000;14.29074500;2023-02-03T07:12:35;10.50;63.40
6556;DHT22;3311;48.32423000;14.29074500;2023-02-03T07:15:02;10.60;62.70
6556;DHT22;3311;48.32423000;14.29074500;2023-02-03T07:17:30;10.50;62.60
6556;DHT22;3311;48.32423000;14.29074500;2023-02-03T07:19:57;10.50;62.70
6556;DHT22;3311;48.32423000;14.29074500;2023-02-03T07:22:24;10.50;62.70
6556;DHT22;3311;48.32423000;14.29074500;2023-02-03T07:24:51;10.50;62.80
6556;DHT22;3311;48.32423000;14.29074500;2023-02-03T07:27:20;10.40;62.90
6556;DHT22;3311;48.32423000;14.29074500;2023-02-03T07:29:47;10.40;62.90
6556;DHT22;3311;48.32423000;14.29074500;2023-02-03T07:32:14;10.40;62.80
6556;DHT22;3311;48.32423000;14.29074500;2023-02-03T07:34:41;10.40;62.80
6556;DHT22;3311;48.32423000;14.29074500;2023-02-03T07:37:09;10.50;62.80
6556;DHT22;3311;48.32423000;14.29074500;2023-02-03T07:39:36;10.50;62.70
6556;DHT22;3311;48.32423000;14.29074500;2023-02-03T07:42:03;10.60;62.70
6556;DHT22;3311;48.32423000;14.29074500;2023-02-03T07:44:32;10.60;62.40
6556;DHT22;3311;48.32423000;14.29074500;2023-02-03T07:46:59;10.60;62.40
6556;DHT22;3311;48.32423000;14.29074500;2023-02-03T07:49:27;10.60;62.40
6556;DHT22;3311;48.32423000;14.29074500;2023-02-03T07:51:54;10.60;62.40
6556;DHT22;3311;48.32423000;14.29074500;2023-02-03T07:54:22;10.70;62.40
6556;DHT22;3311;48.32423000;14.29074500;2023-02-03T07:56:49;10.70;62.30
6556;DHT22;3311;48.32423000;14.29074500;2023-02-03T07:59:16;10.70;62.20
6556;DHT22;3311;48.32423000;14.29074500;2023-02-03T08:01:45;10.80;62.20
6556;DHT22;3311;48.32423000;14.29074500;2023-02-03T08:04:12;10.80;62.20
6556;DHT22;3311;48.32423000;14.29074500;2023-02-03T08:06:41;10.80;62.20
6556;DHT22;3311;48.32423000;14.29074500;2023-02-03T08:09:08;10.70;62.20
6556;DHT22;3311;48.32423000;14.29074500;2023-02-03T08:11:36;10.70;62.50
6556;DHT22;3311;48.32423000;14.29074500;2023-02-03T08:14:03;10.70;62.70
6556;DHT22;3311;48.32423000;14.29074500;2023-02-03T08:16:31;10.70;62.80
6556;DHT22;3311;48.32423000;14.29074500;2023-02-03T08:18:59;10.70;62.70
6556;DHT22;3311;48.32423000;14.29074500;2023-02-03T08:21:26;10.80;62.70
6556;DHT22;3311;48.32423000;14.29074500;2023-02-03T08:23:54;10.70;62.90
6556;DHT22;3311;48.32423000;14.29074500;2023-02-03T08:26:21;10.70;63.10
6556;DHT22;3311;48.32423000;14.29074500;2023-02-03T08:28:49;10.70;62.90
6556;DHT22;3311;48.32423000;14.29074500;2023-02-03T08:31:16;10.70;63.60
6556;DHT22;3311;48.32423000;14.29074500;2023-02-03T08:33:44;10.80;63.00
6556;DHT22;3311;48.32423000;14.29074500;2023-02-03T08:36:13;10.80;62.90
6556;DHT22;3311;48.32423000;14.29074500;2023-02-03T08:38:40;10.80;63.20
6556;DHT22;3311;48.32423000;14.29074500;2023-02-03T08:41:09;10.80;63.00
6556;DHT22;3311;48.32423000;14.29074500;2023-02-03T08:43:36;10.80;63.10
6556;DHT22;3311;48.32423000;14.29074500;2023-02-03T08:46:04;10.70;63.20
6556;DHT22;3311;48.32423000;14.29074500;2023-02-03T08:48:32;10.70;63.30
6556;DHT22;3311;48.32423000;14.29074500;2023-02-03T08:50:59;10.80;63.40
6556;DHT22;3311;48.32423000;14.29074500;2023-02-03T08:53:28;10.80;63.30
6556;DHT22;3311;48.32423000;14.29074500;2023-02-03T08:55:55;10.80;63.30
6556;DHT22;3311;48.32423000;14.29074500;2023-02-03T08:58:22;10.80;63.30
6556;DHT22;3311;48.32423000;14.29074500;2023-02-03T09:00:49;10.90;63.30
6556;DHT22;3311;48.32423000;14.29074500;2023-02-03T09:03:18;10.80;63.20
6556;DHT22;3311;48.32423000;14.29074500;2023-02-03T09:05:46;10.80;63.40
6556;DHT22;3311;48.32423000;14.29074500;2023-02-03T09:08:13;10.80;63.30
6556;DHT22;3311;48.32423000;14.29074500;2023-02-03T09:10:41;10.90;63.40
6556;DHT22;3311;48.32423000;14.29074500;2023-02-03T09:13:08;10.80;63.30
6556;DHT22;3311;48.32423000;14.29074500;2023-02-03T09:15:36;10.90;64.00
6556;DHT22;3311;48.32423000;14.29074500;2023-02-03T09:18:03;10.80;63.30
6556;DHT22;3311;48.32423000;14.29074500;2023-02-03T09:20:31;10.80;63.30
6556;DHT22;3311;48.32423000;14.29074500;2023-02-03T09:22:59;10.80;63.30
6556;DHT22;3311;48.32423000;14.29074500;2023-02-03T09:25:27;10.90;63.40
6556;DHT22;3311;48.32423000;14.29074500;2023-02-03T09:27:55;10.80;63.20
6556;DHT22;3311;48.32423000;14.29074500;2023-02-03T09:30:23;10.80;63.50
6556;DHT22;3311;48.32423000;14.29074500;2023-02-03T09:32:51;10.90;63.20
6556;DHT22;3311;48.32423000;14.29074500;2023-02-03T09:35:21;10.90;63.30
6556;DHT22;3311;48.32423000;14.29074500;2023-02-03T09:37:48;10.90;63.10
6556;DHT22;3311;48.32423000;14.29074500;2023-02-03T09:40:21;11.00;62.90
6556;DHT22;3311;48.32423000;14.29074500;2023-02-03T09:43:02;11.00;63.50
6556;DHT22;3311;48.32423000;14.29074500;2023-02-03T09:45:30;11.00;62.70
6556;DHT22;3311;48.32423000;14.29074500;2023-02-03T09:48:01;11.00;62.80
6556;DHT22;3311;48.32423000;14.29074500;2023-02-03T09:50:33;11.00;62.50
6556;DHT22;3311;48.32423000;14.29074500;2023-02-03T09:53:05;11.10;62.50
6556;DHT22;3311;48.32423000;14.29074500;2023-02-03T09:55:37;11.10;62.50
6556;DHT22;3311;48.32423000;14.29074500;2023-02-03T09:58:10;11.10;62.50
6556;DHT22;3311;48.32423000;14.29074500;2023-02-03T10:00:41;11.10;62.40
6556;DHT22;3311;48.32423000;14.29074500;2023-02-03T10:03:16;11.10;62.20
6556;DHT22;3311;48.32423000;14.29074500;2023-02-03T10:05:56;11.10;62.30
6556;DHT22;3311;48.32423000;14.29074500;2023-02-03T10:08:50;11.10;62.30
6556;DHT22;3311;48.32423000;14.29074500;2023-02-03T10:11:30;11.10;62.00
6556;DHT22;3311;48.32423000;14.29074500;2023-02-03T10:14:13;11.20;62.20
6556;DHT22;3311;48.32423000;14.29074500;2023-02-03T10:16:55;11.20;61.90
6556;DHT22;3311;48.32423000;14.29074500;2023-02-03T10:19:29;11.10;61.80
6556;DHT22;3311;48.32423000;14.29074500;2023-02-03T10:21:59;11.20;62.60
6556;DHT22;3311;48.32423000;14.29074500;2023-02-03T10:24:33;11.30;62.10
6556;DHT22;3311;48.32423000;14.29074500;2023-02-03T10:27:05;11.30;61.80
6556;DHT22;3311;48.32423000;14.29074500;2023-02-03T10:29:42;11.20;62.00
6556;DHT22;3311;48.32423000;14.29074500;2023-02-03T10:32:09;11.10;62.00
6556;DHT22;3311;48.32423000;14.29074500;2023-02-03T10:34:37;11.10;61.80
6556;DHT22;3311;48.32423000;14.29074500;2023-02-03T10:37:13;11.10;61.70
6556;DHT22;3311;48.32423000;14.29074500;2023-02-03T10:39:45;11.10;61.80
6556;DHT22;3311;48.32423000;14.29074500;2023-02-03T10:42:13;11.10;61.70
6556;DHT22;3311;48.32423000;14.29074500;2023-02-03T10:44:47;11.10;61.80
6556;DHT22;3311;48.32423000;14.29074500;2023-02-03T10:47:24;11.20;61.80
6556;DHT22;3311;48.32423000;14.29074500;2023-02-03T10:49:55;11.20;61.50
6556;DHT22;3311;48.32423000;14.29074500;2023-02-03T10:52:26;11.20;61.60
6556;DHT22;3311;48.32423000;14.29074500;2023-02-03T10:54:53;11.20;61.50
6556;DHT22;3311;48.32423000;14.29074500;2023-02-03T10:57:25;11.30;61.60
6556;DHT22;3311;48.32423000;14.29074500;2023-02-03T11:00:07;11.20;61.60
6556;DHT22;3311;48.32423000;14.29074500;2023-02-03T11:02:54;11.30;61.60
6556;DHT22;3311;48.32423000;14.29074500;2023-02-03T11:05:22;11.20;61.10
6556;DHT22;3311;48.32423000;14.29074500;2023-02-03T11:07:51;11.10;61.40
6556;DHT22;3311;48.32423000;14.29074500;2023-02-03T11:10:27;11.10;61.80
6556;DHT22;3311;48.32423000;14.29074500;2023-02-03T11:13:10;11.10;61.70
6556;DHT22;3311;48.32423000;14.29074500;2023-02-03T11:15:44;11.10;61.50
6556;DHT22;3311;48.32423000;14.29074500;2023-02-03T11:18:40;11.10;61.80
6556;DHT22;3311;48.32423000;14.29074500;2023-02-03T11:21:14;11.00;61.80
6556;DHT22;3311;48.32423000;14.29074500;2023-02-03T11:23:47;11.00;61.60
6556;DHT22;3311;48.32423000;14.29074500;2023-02-03T11:26:19;11.10;61.60
6556;DHT22;3311;48.32423000;14.29074500;2023-02-03T11:28:49;11.10;61.80
6556;DHT22;3311;48.32423000;14.29074500;2023-02-03T11:31:21;11.10;61.80
6556;DHT22;3311;48.32423000;14.29074500;2023-02-03T11:33:53;11.20;62.00
6556;DHT22;3311;48.32423000;14.29074500;2023-02-03T11:36:21;11.40;64.10
6556;DHT22;3311;48.32423000;14.29074500;2023-02-03T11:38:51;11.70;65.20
6556;DHT22;3311;48.32423000;14.29074500;2023-02-03T11:41:19;11.80;65.50
6556;DHT22;3311;48.32423000;14.29074500;2023-02-03T11:43:55;12.00;65.90
6556;DHT22;3311;48.32423000;14.29074500;2023-02-03T11:46:24;12.20;65.90
6556;DHT22;3311;48.32423000;14.29074500;2023-02-03T11:49:01;12.20;65.50
6556;DHT22;3311;48.32423000;14.29074500;2023-02-03T11:51:37;12.40;65.60
6556;DHT22;3311;48.32423000;14.29074500;2023-02-03T11:54:19;12.50;65.20
6556;DHT22;3311;48.32423000;14.29074500;2023-02-03T11:57:12;12.50;64.70
6556;DHT22;3311;48.32423000;14.29074500;2023-02-03T11:59:55;12.40;64.70
6556;DHT22;3311;48.32423000;14.29074500;2023-02-03T12:02:56;12.50;64.70
6556;DHT22;3311;48.32423000;14.29074500;2023-02-03T12:05:45;12.20;64.20
6556;DHT22;3311;48.32423000;14.29074500;2023-02-03T12:08:25;11.90;64.70
6556;DHT22;3311;48.32423000;14.29074500;2023-02-03T12:11:06;11.70;64.60
6556;DHT22;3311;48.32423000;14.29074500;2023-02-03T12:13:54;11.60;65.10
6556;DHT22;3311;48.32423000;14.29074500;2023-02-03T12:16:38;11.60;65.00
6556;DHT22;3311;48.32423000;14.29074500;2023-02-03T12:19:15;11.50;64.80
6556;DHT22;3311;48.32423000;14.29074500;2023-02-03T12:21:44;11.40;64.60
6556;DHT22;3311;48.32423000;14.29074500;2023-02-03T12:24:23;11.40;64.90
6556;DHT22;3311;48.32423000;14.29074500;2023-02-03T12:27:01;11.40;64.60
6556;DHT22;3311;48.32423000;14.29074500;2023-02-03T12:29:36;11.40;64.70
6556;DHT22;3311;48.32423000;14.29074500;2023-02-03T12:32:13;11.40;64.50
6556;DHT22;3311;48.32423000;14.29074500;2023-02-03T12:34:51;11.40;64.60
6556;DHT22;3311;48.32423000;14.29074500;2023-02-03T12:37:23;11.40;64.20
6556;DHT22;3311;48.32423000;14.29074500;2023-02-03T12:39:52;11.40;64.20
6556;DHT22;3311;48.32423000;14.29074500;2023-02-03T12:42:23;11.40;64.10
6556;DHT22;3311;48.32423000;14.29074500;2023-02-03T12:44:57;11.40;64.00
6556;DHT22;3311;48.32423000;14.29074500;2023-02-03T12:47:30;11.30;63.50
6556;DHT22;3311;48.32423000;14.29074500;2023-02-03T12:50:03;11.20;63.60
6556;DHT22;3311;48.32423000;14.29074500;2023-02-03T12:52:36;11.40;64.30
6556;DHT22;3311;48.32423000;14.29074500;2023-02-03T12:55:16;11.50;63.80
6556;DHT22;3311;48.32423000;14.29074500;2023-02-03T12:57:49;11.50;63.20
6556;DHT22;3311;48.32423000;14.29074500;2023-02-03T13:00:28;11.50;62.50
6556;DHT22;3311;48.32423000;14.29074500;2023-02-03T13:03:05;11.40;62.50
6556;DHT22;3311;48.32423000;14.29074500;2023-02-03T13:05:40;11.30;62.70
6556;DHT22;3311;48.32423000;14.29074500;2023-02-03T13:08:15;11.30;62.50
6556;DHT22;3311;48.32423000;14.29074500;2023-02-03T13:10:47;11.20;62.30
6556;DHT22;3311;48.32423000;14.29074500;2023-02-03T13:13:22;11.30;62.60
6556;DHT22;3311;48.32423000;14.29074500;2023-02-03T13:15:53;11.40;62.20
6556;DHT22;3311;48.32423000;14.29074500;2023-02-03T13:18:25;11.30;62.10
6556;DHT22;3311;48.32423000;14.29074500;2023-02-03T13:20:55;11.30;62.20
6556;DHT22;3311;48.32423000;14.29074500;2023-02-03T13:23:24;11.40;62.00
6556;DHT22;3311;48.32423000;14.29074500;2023-02-03T13:26:03;11.40;62.00
6556;DHT22;3311;48.32423000;14.29074500;2023-02-03T13:28:49;11.40;61.70
6556;DHT22;3311;48.32423000;14.29074500;2023-02-03T13:31:30;11.30;61.50
6556;DHT22;3311;48.32423000;14.29074500;2023-02-03T13:34:28;11.30;61.80
6556;DHT22;3311;48.32423000;14.29074500;2023-02-03T13:37:26;11.30;61.70
6556;DHT22;3311;48.32423000;14.29074500;2023-02-03T13:40:26;11.30;61.50
6556;DHT22;3311;48.32423000;14.29074500;2023-02-03T13:42:58;11.40;61.60
6556;DHT22;3311;48.32423000;14.29074500;2023-02-03T13:45:29;11.40;61.60
6556;DHT22;3311;48.32423000;14.29074500;2023-02-03T13:48:09;11.30;61.50
6556;DHT22;3311;48.32423000;14.29074500;2023-02-03T13:50:37;11.30;61.60
6556;DHT22;3311;48.32423000;14.29074500;2023-02-03T13:53:14;11.40;61.60
6556;DHT22;3311;48.32423000;14.29074500;2023-02-03T13:55:43;11.30;61.60
6556;DHT22;3311;48.32423000;14.29074500;2023-02-03T13:58:20;11.30;61.60
6556;DHT22;3311;48.32423000;14.29074500;2023-02-03T14:03:58;11.40;62.10